Time;durP1;ratioP1;P1;durP2;ratioP2;P2;SDS_P1;SDS_P2;PMS_P1;PMS_P2;Temp;Humidity;BMP_temperature;BMP_pressure;BME280_temperature;BME280_humidity;BME280_pressure;Samples;Min_cycle;Max_cycle;Signal;HPM_P1;HPM_P2
2022/11/30 00:00:58;;;;;;;0.00;0.00;;;;;;;7.52;61.73;95276.13;4948754;28;20204;-62
2022/11/30 00:03:25;;;;;;;1.30;1.20;;;;;;;7.43;61.95;95266.28;4946602;29;20266;-63
2022/11/30 00:05:52;;;;;;;6.80;1.98;;;;;;;7.66;61.50;95277.53;4954564;28;20208;-63
2022/11/30 00:08:19;;;;;;;0.00;0.00;;;;;;;7.63;61.54;95279.75;4954888;28;20703;-62
2022/11/30 00:10:46;;;;;;;0.00;0.00;;;;;;;7.59;61.50;95274.22;4942539;28;20260;-61
2022/11/30 00:13:13;;;;;;;0.00;0.00;;;;;;;7.61;62.00;95279.22;4953704;29;20188;-64
2022/11/30 00:15:40;;;;;;;0.20;0.20;;;;;;;7.50;62.07;95283.41;4944187;28;20208;-65
2022/11/30 00:18:07;;;;;;;0.00;0.00;;;;;;;7.69;62.12;95286.69;4951802;28;20306;-65
2022/11/30 00:20:33;;;;;;;0.00;0.00;;;;;;;7.57;61.90;95293.72;4954933;28;20196;-63
2022/11/30 00:23:00;;;;;;;0.00;0.00;;;;;;;7.54;62.49;95288.94;4953479;28;20216;-65
2022/11/30 00:25:27;;;;;;;0.00;0.00;;;;;;;7.47;63.27;95294.28;4942838;28;20231;-65
2022/11/30 00:27:54;;;;;;;0.00;0.00;;;;;;;7.47;62.83;95303.91;4941515;28;20307;-64
2022/11/30 00:30:21;;;;;;;0.00;0.00;;;;;;;7.77;61.75;95288.97;4941241;29;20558;-63
2022/11/30 00:32:48;;;;;;;0.30;0.30;;;;;;;8.31;60.92;95291.16;4942707;28;20255;-65
2022/11/30 00:35:16;;;;;;;0.00;0.00;;;;;;;8.20;61.06;95302.41;4948662;29;20197;-65
2022/11/30 00:37:43;;;;;;;0.10;0.10;;;;;;;8.29;60.52;95302.84;4945408;29;20327;-66
2022/11/30 00:40:11;;;;;;;0.10;0.10;;;;;;;8.44;60.16;95293.50;4954040;28;20318;-61
2022/11/30 00:42:37;;;;;;;0.00;0.00;;;;;;;8.28;60.41;95289.03;4954341;28;20272;-62
2022/11/30 00:45:05;;;;;;;0.00;0.00;;;;;;;7.99;61.36;95288.13;4953035;28;20966;-65
2022/11/30 00:47:31;;;;;;;0.10;0.10;;;;;;;8.16;60.06;95285.59;4934556;29;20323;-64
2022/11/30 00:49:58;;;;;;;0.10;0.10;;;;;;;8.12;60.42;95287.06;4934738;29;20557;-63
2022/11/30 00:52:27;;;;;;;0.05;0.05;;;;;;;8.23;60.77;95276.63;4937957;29;20291;-64
2022/11/30 00:54:54;;;;;;;1.33;0.85;;;;;;;8.23;60.37;95278.44;4945710;28;20201;-65
2022/11/30 00:57:21;;;;;;;0.10;0.10;;;;;;;8.08;60.26;95278.16;4948039;29;20196;-64
2022/11/30 00:59:48;;;;;;;0.10;0.10;;;;;;;7.87;61.38;95276.91;4941262;29;20582;-66
2022/11/30 01:02:14;;;;;;;0.00;0.00;;;;;;;8.12;60.63;95276.63;4954355;28;20243;-62
2022/11/30 01:04:41;;;;;;;0.00;0.00;;;;;;;8.11;60.15;95277.69;4949684;28;20437;-66
2022/11/30 01:07:08;;;;;;;0.55;0.55;;;;;;;8.03;60.50;95281.44;4934753;29;20201;-67
2022/11/30 01:09:35;;;;;;;0.17;0.17;;;;;;;8.05;60.68;95282.00;4950715;29;20199;-67
2022/11/30 01:12:02;;;;;;;0.35;0.32;;;;;;;8.20;60.13;95282.31;4954124;28;20204;-65
2022/11/30 01:14:29;;;;;;;0.17;0.17;;;;;;;8.02;61.00;95276.44;4953258;28;20295;-63
2022/11/30 01:16:56;;;;;;;0.08;0.08;;;;;;;7.93;60.94;95283.84;4953468;28;20223;-62
2022/11/30 01:19:22;;;;;;;0.10;0.10;;;;;;;8.01;61.28;95274.88;4948958;29;20229;-63
2022/11/30 01:21:49;;;;;;;3.50;1.75;;;;;;;7.98;61.40;95276.13;4947742;28;20205;-62
2022/11/30 01:24:16;;;;;;;0.40;0.40;;;;;;;8.10;60.98;95274.25;4941757;29;20243;-61
2022/11/30 01:26:43;;;;;;;0.55;0.55;;;;;;;8.06;61.50;95280.97;4953283;28;20199;-64
2022/11/30 01:29:10;;;;;;;0.20;0.20;;;;;;;7.92;61.08;95265.78;4953364;28;20215;-63
2022/11/30 01:31:36;;;;;;;0.00;0.00;;;;;;;7.84;62.08;95279.19;4939426;28;20196;-66
2022/11/30 01:34:03;;;;;;;0.10;0.10;;;;;;;8.02;61.18;95276.44;4953186;29;20200;-66
2022/11/30 01:36:31;;;;;;;0.23;0.23;;;;;;;8.09;60.84;95275.31;4939598;28;20276;-62
2022/11/30 01:38:57;;;;;;;0.00;0.00;;;;;;;8.04;60.69;95272.59;4953437;28;20503;-65
2022/11/30 01:41:28;;;;;;;0.15;0.15;;;;;;;7.87;61.69;95278.72;4940657;28;20235;-62
2022/11/30 01:44:16;;;;;;;0.52;0.52;;;;;;;7.73;62.09;95277.38;4947034;29;20201;-65
2022/11/30 01:46:57;;;;;;;0.25;0.17;;;;;;;7.67;62.69;95283.50;4947914;29;20228;-64
2022/11/30 01:49:27;;;;;;;1.38;1.15;;;;;;;7.61;62.56;95279.22;4944231;28;20197;-66
2022/11/30 01:52:00;;;;;;;0.10;0.10;;;;;;;7.50;62.82;95277.41;4934761;29;20212;-62
2022/11/30 01:54:55;;;;;;;0.00;0.00;;;;;;;7.49;63.10;95266.19;4946455;29;20211;-63
2022/11/30 01:57:30;;;;;;;0.00;0.00;;;;;;;7.61;62.80;95274.00;4947225;28;20628;-61
2022/11/30 02:00:01;;;;;;;0.00;0.00;;;;;;;7.41;63.09;95276.16;4945017;28;20240;-65
2022/11/30 02:02:46;;;;;;;0.00;0.00;;;;;;;7.35;63.44;95261.41;4947300;29;20544;-65
2022/11/30 02:05:16;;;;;;;0.38;0.30;;;;;;;7.72;62.52;95266.16;4944061;28;20319;-62
2022/11/30 02:07:43;;;;;;;0.28;0.28;;;;;;;7.49;62.92;95271.38;4936396;29;20695;-64
2022/11/30 02:10:16;;;;;;;0.10;0.10;;;;;;;7.54;62.65;95262.88;4946536;28;20228;-64
2022/11/30 02:13:07;;;;;;;0.00;0.00;;;;;;;7.61;62.43;95263.56;4944200;29;20202;-64
2022/11/30 02:16:12;;;;;;;0.10;0.10;;;;;;;7.66;62.65;95261.06;4939991;29;20200;-65
2022/11/30 02:18:46;;;;;;;0.10;0.10;;;;;;;7.52;63.04;95260.50;4950655;28;20695;-65
2022/11/30 02:21:24;;;;;;;0.00;0.00;;;;;;;7.64;62.53;95268.31;4944376;29;20202;-67
2022/11/30 02:24:05;;;;;;;0.00;0.00;;;;;;;7.36;63.60;95265.59;4934267;28;20291;-64
2022/11/30 02:26:46;;;;;;;0.90;0.63;;;;;;;7.66;62.29;95271.50;4946021;29;20203;-64
2022/11/30 02:29:37;;;;;;;0.00;0.00;;;;;;;7.38;63.40;95273.97;4952378;28;20227;-63
2022/11/30 02:32:09;;;;;;;0.00;0.00;;;;;;;7.25;63.15;95261.97;4939161;28;20211;-65
2022/11/30 02:34:37;;;;;;;0.00;0.00;;;;;;;7.13;63.58;95261.94;4952577;28;20204;-64
2022/11/30 02:37:05;;;;;;;4.15;0.70;;;;;;;7.33;63.13;95260.84;4937406;28;20207;-63
2022/11/30 02:39:32;;;;;;;0.10;0.10;;;;;;;7.44;62.50;95253.03;4941015;29;20219;-63
2022/11/30 02:41:59;;;;;;;0.00;0.00;;;;;;;7.43;62.77;95267.06;4938555;28;20287;-63
2022/11/30 02:44:27;;;;;;;0.00;0.00;;;;;;;7.40;63.36;95257.09;4952142;28;20235;-61
2022/11/30 02:47:22;;;;;;;0.00;0.00;;;;;;;7.63;63.00;95261.50;4939349;28;20333;-63
2022/11/30 02:49:59;;;;;;;0.00;0.00;;;;;;;7.50;62.36;95259.16;4941248;28;20203;-63
2022/11/30 02:52:29;;;;;;;0.75;0.50;;;;;;;7.08;63.80;95259.22;4936153;28;20288;-61
2022/11/30 02:55:05;;;;;;;0.35;0.30;;;;;;;7.15;63.97;95264.34;4951925;29;20327;-63
2022/11/30 02:57:33;;;;;;;0.00;0.00;;;;;;;7.03;64.41;95260.91;4951372;28;20798;-63
2022/11/30 03:00:02;;;;;;;0.20;0.20;;;;;;;7.44;63.75;95267.88;4943360;28;20251;-64
2022/11/30 03:02:29;;;;;;;0.00;0.00;;;;;;;7.47;63.13;95268.22;4946420;28;20207;-61
2022/11/30 03:04:56;;;;;;;0.05;0.05;;;;;;;7.22;63.95;95265.81;4941700;29;20204;-63
2022/11/30 03:07:23;;;;;;;0.00;0.00;;;;;;;7.15;64.48;95264.34;4942913;28;20204;-66
2022/11/30 03:09:50;;;;;;;10.85;0.75;;;;;;;7.17;64.43;95263.09;4954895;28;20283;-64
2022/11/30 03:12:16;;;;;;;0.00;0.00;;;;;;;7.12;64.99;95273.41;4955962;28;20238;-63
2022/11/30 03:14:43;;;;;;;0.05;0.05;;;;;;;7.22;64.08;95260.59;4952896;28;20271;-62
2022/11/30 03:17:11;;;;;;;2.15;0.55;;;;;;;7.22;64.79;95272.06;4936938;29;20204;-62
2022/11/30 03:19:38;;;;;;;0.00;0.00;;;;;;;7.22;64.45;95271.00;4936137;29;20666;-63
2022/11/30 03:22:04;;;;;;;0.73;0.73;;;;;;;6.99;65.29;95263.19;4944289;29;20255;-63
2022/11/30 03:24:31;;;;;;;0.00;0.00;;;;;;;7.30;64.47;95258.69;4941820;28;20249;-64
2022/11/30 03:27:17;;;;;;;0.10;0.10;;;;;;;7.60;63.56;95268.00;4942215;29;20255;-64
2022/11/30 03:29:44;;;;;;;0.00;0.00;;;;;;;7.39;64.04;95262.56;4940766;28;20207;-63
2022/11/30 03:32:11;;;;;;;0.00;0.00;;;;;;;7.57;63.40;95254.63;4943261;29;20242;-64
2022/11/30 03:34:38;;;;;;;0.57;0.38;;;;;;;7.58;63.03;95261.41;4942672;28;20228;-63
2022/11/30 03:37:05;;;;;;;0.00;0.00;;;;;;;7.46;63.82;95276.25;4941646;29;20200;-65
2022/11/30 03:39:31;;;;;;;0.00;0.00;;;;;;;7.53;63.59;95264.72;4955298;28;20254;-64
2022/11/30 03:41:58;;;;;;;0.00;0.00;;;;;;;7.42;63.66;95268.09;4951669;28;20616;-65
2022/11/30 03:44:25;;;;;;;0.00;0.00;;;;;;;7.27;64.25;95267.75;4936096;29;20220;-62
2022/11/30 03:46:52;;;;;;;0.00;0.00;;;;;;;7.33;64.01;95266.84;4950966;29;20786;-65
2022/11/30 03:49:19;;;;;;;0.00;0.00;;;;;;;7.51;63.24;95268.56;4955132;28;20290;-63
2022/11/30 03:51:45;;;;;;;0.00;0.00;;;;;;;7.84;62.15;95268.75;4942996;28;20296;-66
2022/11/30 03:54:12;;;;;;;0.17;0.17;;;;;;;7.73;62.50;95272.19;4935565;29;20239;-63
2022/11/30 03:56:39;;;;;;;1.40;0.55;;;;;;;7.54;63.10;95268.09;4944173;29;20196;-64
2022/11/30 03:59:06;;;;;;;0.13;0.13;;;;;;;7.68;62.77;95274.69;4940088;28;20240;-64
2022/11/30 04:01:32;;;;;;;0.05;0.05;;;;;;;7.82;62.72;95274.22;4937568;29;20624;-64
2022/11/30 04:03:59;;;;;;;0.00;0.00;;;;;;;7.94;62.16;95271.56;4935132;29;20204;-65
2022/11/30 04:06:27;;;;;;;0.08;0.08;;;;;;;7.72;63.03;95275.81;4948997;28;20904;-66
2022/11/30 04:08:54;;;;;;;0.60;0.47;;;;;;;7.91;62.01;95272.03;4946417;29;20669;-64
2022/11/30 04:11:21;;;;;;;0.00;0.00;;;;;;;7.69;63.11;95279.66;4941039;28;20271;-62
2022/11/30 04:13:48;;;;;;;0.00;0.00;;;;;;;7.64;62.38;95273.53;4954702;28;20707;-66
2022/11/30 04:16:14;;;;;;;0.00;0.00;;;;;;;7.47;63.20;95272.63;4952039;28;20227;-67
2022/11/30 04:18:41;;;;;;;0.00;0.00;;;;;;;7.80;62.48;95278.88;4943159;29;20574;-67
2022/11/30 04:21:09;;;;;;;0.25;0.25;;;;;;;7.94;61.69;95280.19;4954225;28;20302;-64
2022/11/30 04:23:38;;;;;;;0.35;0.35;;;;;;;7.83;63.00;95282.81;4953966;28;20200;-64
2022/11/30 04:26:07;;;;;;;5.05;0.57;;;;;;;7.65;63.08;95281.13;4954639;28;20220;-67
2022/11/30 04:28:34;;;;;;;0.17;0.17;;;;;;;7.87;62.50;95283.94;4940788;28;20200;-63
2022/11/30 04:31:01;;;;;;;0.00;0.00;;;;;;;7.53;63.23;95292.59;4943900;28;20545;-63
2022/11/30 04:33:28;;;;;;;0.20;0.20;;;;;;;7.61;62.59;95294.88;4952578;29;20195;-63
2022/11/30 04:36:01;;;;;;;0.00;0.00;;;;;;;7.61;63.20;95290.44;4954338;28;20233;-64
2022/11/30 04:38:29;;;;;;;0.00;0.00;;;;;;;7.53;63.28;95282.97;4950409;28;20673;-66
2022/11/30 04:40:56;;;;;;;0.00;0.00;;;;;;;7.44;64.06;95288.72;4943792;28;20227;-62
2022/11/30 04:43:23;;;;;;;0.20;0.20;;;;;;;7.61;63.23;95284.44;4941090;28;20215;-63
2022/11/30 04:45:50;;;;;;;0.35;0.35;;;;;;;7.22;63.71;95282.47;4953730;28;20311;-65
2022/11/30 04:48:18;;;;;;;0.00;0.00;;;;;;;7.50;64.00;95282.63;4953406;28;20271;-64
2022/11/30 04:50:45;;;;;;;0.75;0.75;;;;;;;7.69;63.05;95276.25;4946995;28;20284;-64
2022/11/30 04:53:12;;;;;;;0.13;0.13;;;;;;;7.51;63.30;95265.94;4941859;29;20188;-64
2022/11/30 04:55:39;;;;;;;0.43;0.43;;;;;;;7.53;63.19;95284.75;4952893;29;20238;-64
2022/11/30 04:58:06;;;;;;;0.38;0.38;;;;;;;7.48;63.92;95295.09;4952504;28;20290;-65
2022/11/30 05:00:34;;;;;;;0.15;0.15;;;;;;;7.39;63.96;95286.00;4947621;28;20216;-65
2022/11/30 05:03:01;;;;;;;0.00;0.00;;;;;;;7.53;63.05;95293.41;4944121;28;20967;-64
2022/11/30 05:05:28;;;;;;;0.00;0.00;;;;;;;7.70;62.63;95294.28;4951837;28;20227;-65
2022/11/30 05:07:57;;;;;;;0.13;0.13;;;;;;;7.64;63.08;95295.22;4944029;29;20239;-63
2022/11/30 05:10:25;;;;;;;0.20;0.20;;;;;;;7.59;62.66;95299.50;4942973;28;20707;-64
2022/11/30 05:12:53;;;;;;;0.32;0.32;;;;;;;7.82;62.10;95286.47;4945214;29;20203;-69
2022/11/30 05:15:20;;;;;;;0.00;0.00;;;;;;;7.59;63.24;95302.91;4939385;29;20699;-64
2022/11/30 05:17:47;;;;;;;0.20;0.20;;;;;;;7.81;62.25;95297.94;4943778;28;20203;-67
2022/11/30 05:20:14;;;;;;;0.00;0.00;;;;;;;7.66;62.77;95297.59;4949037;29;20290;-64
2022/11/30 05:22:41;;;;;;;0.00;0.00;;;;;;;7.48;63.45;95301.06;4945477;28;20304;-66
2022/11/30 05:25:08;;;;;;;0.63;0.50;;;;;;;7.24;63.78;95290.88;4933722;28;20603;-62
2022/11/30 05:27:35;;;;;;;0.00;0.00;;;;;;;7.32;63.22;95295.75;4952404;28;20674;-67
2022/11/30 05:30:04;;;;;;;0.00;0.00;;;;;;;7.47;63.46;95298.69;4951199;28;20812;-65
2022/11/30 05:32:31;;;;;;;0.00;0.00;;;;;;;7.33;63.91;95298.13;4948465;28;20929;-65
2022/11/30 05:34:58;;;;;;;0.15;0.15;;;;;;;7.57;63.44;95298.94;4947187;29;20254;-64
2022/11/30 05:37:25;;;;;;;0.00;0.00;;;;;;;7.59;63.17;95302.13;4933309;29;20260;-68
2022/11/30 05:39:52;;;;;;;0.00;0.00;;;;;;;7.34;63.38;95283.28;4933246;28;20283;-66
2022/11/30 05:42:20;;;;;;;0.00;0.00;;;;;;;7.58;62.72;95297.91;4940718;29;20220;-66
2022/11/30 05:44:47;;;;;;;0.38;0.38;;;;;;;7.33;63.15;95310.38;4938554;28;20244;-69
2022/11/30 05:47:14;;;;;;;0.05;0.05;;;;;;;7.24;63.84;95324.75;4931978;29;20283;-69
2022/11/30 05:49:41;;;;;;;5.07;0.57;;;;;;;7.45;63.13;95311.16;4932884;29;20196;-66
2022/11/30 05:52:09;;;;;;;0.03;0.03;;;;;;;7.75;62.75;95304.03;4947172;29;20219;-67
2022/11/30 05:54:35;;;;;;;0.00;0.00;;;;;;;7.72;62.60;95317.56;4952211;28;20619;-68
2022/11/30 05:57:04;;;;;;;0.22;0.22;;;;;;;7.79;62.31;95318.22;4951720;28;20286;-65
2022/11/30 05:59:30;;;;;;;0.08;0.08;;;;;;;7.57;62.60;95322.41;4938970;28;20314;-66
2022/11/30 06:01:57;;;;;;;0.15;0.15;;;;;;;7.50;63.11;95313.91;4952605;28;20204;-67
2022/11/30 06:04:24;;;;;;;0.43;0.43;;;;;;;7.70;62.47;95319.59;4950202;28;20195;-66
2022/11/30 06:06:54;;;;;;;0.43;0.43;;;;;;;7.98;61.70;95323.09;4941766;29;20230;-69
2022/11/30 06:09:21;;;;;;;1.38;0.85;;;;;;;7.94;61.50;95327.16;4950796;28;20204;-67
2022/11/30 06:11:48;;;;;;;0.00;0.00;;;;;;;7.83;61.64;95324.56;4939987;29;20719;-68
2022/11/30 06:14:15;;;;;;;0.22;0.22;;;;;;;8.04;61.26;95326.59;4939101;28;20208;-68
2022/11/30 06:16:42;;;;;;;0.00;0.00;;;;;;;7.83;62.33;95333.19;4946025;28;20283;-67
2022/11/30 06:19:09;;;;;;;0.25;0.25;;;;;;;8.17;61.79;95331.59;4932761;29;20208;-67
2022/11/30 06:21:35;;;;;;;0.65;0.28;;;;;;;7.96;61.45;95329.53;4932450;29;20284;-69
2022/11/30 06:24:02;;;;;;;0.00;0.00;;;;;;;7.72;62.24;95327.97;4943065;29;20754;-70
2022/11/30 06:26:29;;;;;;;0.00;0.00;;;;;;;7.97;61.60;95341.59;4951428;28;20203;-67
2022/11/30 06:28:56;;;;;;;0.00;0.00;;;;;;;7.90;62.28;95340.91;4942080;28;20266;-67
2022/11/30 06:31:23;;;;;;;0.10;0.10;;;;;;;7.68;62.95;95339.88;4946750;29;20563;-68
2022/11/30 06:33:50;;;;;;;0.00;0.00;;;;;;;7.62;62.16;95333.75;4944900;28;20206;-69
2022/11/30 06:36:21;;;;;;;0.10;0.10;;;;;;;7.79;61.75;95339.88;4945905;29;20262;-68
2022/11/30 06:38:49;;;;;;;0.13;0.13;;;;;;;7.78;62.07;95342.72;4951299;28;20207;-69
2022/11/30 06:41:16;;;;;;;0.00;0.00;;;;;;;7.67;62.10;95333.06;4951465;28;20290;-67
2022/11/30 06:43:42;;;;;;;1.08;0.98;;;;;;;8.07;60.94;95352.22;4952336;28;20192;-68
2022/11/30 06:46:10;;;;;;;0.85;0.85;;;;;;;7.97;60.65;95357.25;4952429;29;20199;-69
2022/11/30 06:48:37;;;;;;;0.00;0.00;;;;;;;8.31;60.38;95353.81;4939261;28;20200;-68
2022/11/30 06:51:05;;;;;;;0.43;0.35;;;;;;;8.76;60.76;95344.28;4944406;28;20743;-68
2022/11/30 06:53:33;;;;;;;1.27;0.65;;;;;;;8.71;59.41;95349.41;4943038;28;20679;-69
2022/11/30 06:56:09;;;;;;;0.30;0.30;;;;;;;8.49;60.27;95343.22;4934859;28;20755;-67
2022/11/30 06:58:40;;;;;;;1.00;0.80;;;;;;;8.34;60.50;95332.47;4943046;29;20290;-66
2022/11/30 07:01:11;;;;;;;0.10;0.10;;;;;;;8.56;60.05;95343.88;4951408;28;20302;-68
2022/11/30 07:03:39;;;;;;;0.68;0.68;;;;;;;8.47;60.32;95352.31;4941842;28;20209;-66
2022/11/30 07:06:11;;;;;;;0.20;0.20;;;;;;;7.90;60.58;95352.13;4945680;29;20204;-68
2022/11/30 07:08:39;;;;;;;0.47;0.40;;;;;;;7.96;60.62;95355.63;4932767;29;20209;-68
2022/11/30 07:11:07;;;;;;;1.38;0.85;;;;;;;8.14;60.55;95347.69;4933591;29;20397;-67
2022/11/30 07:13:34;;;;;;;1.42;1.05;;;;;;;8.53;59.85;95339.13;4943387;28;20235;-68
2022/11/30 07:16:06;;;;;;;0.10;0.10;;;;;;;8.33;59.99;95343.94;4945327;29;20199;-71
2022/11/30 07:18:33;;;;;;;0.25;0.25;;;;;;;8.20;60.88;95346.78;4938144;28;21053;-67
2022/11/30 07:21:04;;;;;;;0.32;0.32;;;;;;;8.09;60.73;95345.78;4950820;28;20294;-68
2022/11/30 07:26:22;;;;;;;0.20;0.20;;;;;;;8.12;59.85;95328.84;4946499;29;20294;-68
2022/11/30 07:28:53;;;;;;;0.40;0.38;;;;;;;8.17;60.19;95342.03;4950883;28;20750;-66
2022/11/30 07:31:26;;;;;;;0.17;0.17;;;;;;;7.82;59.60;95349.06;4937529;28;20676;-67
2022/11/30 07:33:54;;;;;;;1.75;0.90;;;;;;;7.98;59.76;95348.38;4951530;28;20192;-68
2022/11/30 07:36:24;;;;;;;0.08;0.08;;;;;;;7.79;59.87;95359.97;4951597;28;20312;-67
2022/11/30 07:38:52;;;;;;;0.10;0.10;;;;;;;7.72;59.95;95359.28;4937984;29;20196;-66
2022/11/30 07:41:19;;;;;;;0.45;0.43;;;;;;;8.22;59.48;95355.16;4939192;28;20232;-68
2022/11/30 07:43:46;;;;;;;0.20;0.20;;;;;;;8.46;58.49;95351.53;4949945;29;20266;-65
2022/11/30 07:46:14;;;;;;;0.57;0.57;;;;;;;8.66;58.30;95343.28;4940916;28;20665;-67
2022/11/30 07:48:43;;;;;;;0.00;0.00;;;;;;;8.67;58.34;95337.84;4945617;29;20641;-67
2022/11/30 07:51:13;;;;;;;0.30;0.30;;;;;;;8.80;57.79;95340.19;4934173;28;20235;-69
2022/11/30 07:53:41;;;;;;;0.17;0.17;;;;;;;8.68;58.52;95339.44;4935881;29;20232;-68
2022/11/30 07:56:11;;;;;;;1.00;0.85;;;;;;;8.77;58.39;95348.50;4939619;29;20283;-66
2022/11/30 07:58:38;;;;;;;0.75;0.75;;;;;;;8.60;58.51;95337.19;4944105;28;20209;-66
2022/11/30 08:01:08;;;;;;;0.10;0.10;;;;;;;8.38;59.65;95341.44;4951699;29;20279;-68
2022/11/30 08:03:36;;;;;;;0.80;0.80;;;;;;;8.08;60.46;95312.84;4954581;28;20208;-68
2022/11/30 08:06:06;;;;;;;0.47;0.47;;;;;;;8.26;60.19;95332.84;4952599;28;20207;-65
2022/11/30 08:08:35;;;;;;;0.00;0.00;;;;;;;8.04;61.08;95332.63;4944019;29;20263;-67
2022/11/30 08:11:04;;;;;;;0.00;0.00;;;;;;;8.14;59.88;95329.41;4941145;28;20205;-68
2022/11/30 08:13:32;;;;;;;0.55;0.20;;;;;;;7.91;60.69;95321.63;4947150;28;20203;-66
2022/11/30 08:16:11;;;;;;;0.00;0.00;;;;;;;7.98;60.87;95327.50;4935641;29;20236;-69
2022/11/30 08:18:39;;;;;;;0.10;0.10;;;;;;;7.75;61.20;95337.94;4943107;28;20265;-69
2022/11/30 08:21:09;;;;;;;0.00;0.00;;;;;;;7.75;60.74;95332.75;4941215;28;20319;-67
2022/11/30 08:23:40;;;;;;;1.23;0.85;;;;;;;7.93;60.95;95340.44;4941683;29;20220;-65
2022/11/30 08:26:12;;;;;;;0.63;0.63;;;;;;;8.12;60.95;95328.84;4941244;28;20649;-66
2022/11/30 08:28:41;;;;;;;0.00;0.00;;;;;;;8.19;60.26;95334.75;4940664;29;20231;-68
2022/11/30 08:31:12;;;;;;;0.05;0.05;;;;;;;8.18;60.27;95340.97;4953721;29;20263;-70
2022/11/30 08:33:39;;;;;;;0.00;0.00;;;;;;;7.93;61.42;95343.06;4954299;28;20585;-68
2022/11/30 08:36:14;;;;;;;0.00;0.00;;;;;;;7.96;60.95;95345.19;4943066;28;20744;-68
2022/11/30 08:38:43;;;;;;;0.10;0.10;;;;;;;8.06;60.29;95343.59;4948068;28;20231;-68
2022/11/30 08:41:12;;;;;;;0.03;0.03;;;;;;;7.92;60.10;95346.66;4945712;29;20644;-66
2022/11/30 08:43:40;;;;;;;0.00;0.00;;;;;;;7.91;60.87;95347.69;4953697;28;20754;-67
2022/11/30 08:46:09;;;;;;;0.00;0.00;;;;;;;8.00;60.79;95339.31;4953568;28;20202;-68
2022/11/30 08:48:57;;;;;;;0.43;0.43;;;;;;;8.05;60.41;95336.00;4953281;28;20200;-66
2022/11/30 08:51:44;;;;;;;0.50;0.50;;;;;;;8.44;60.20;95337.91;4941579;28;20299;-66
2022/11/30 08:54:31;;;;;;;0.00;0.00;;;;;;;8.62;59.02;95335.13;4948086;29;20625;-66
2022/11/30 08:56:58;;;;;;;0.10;0.10;;;;;;;8.70;58.74;95328.75;4934839;28;20283;-69
2022/11/30 08:59:24;;;;;;;0.10;0.10;;;;;;;8.64;58.81;95333.09;4934699;29;20262;-67
2022/11/30 09:01:51;;;;;;;0.00;0.00;;;;;;;8.10;59.58;95341.34;4942717;28;20259;-66
2022/11/30 09:04:18;;;;;;;0.00;0.00;;;;;;;8.31;59.34;95327.72;4940039;28;20232;-67
2022/11/30 09:06:45;;;;;;;2.17;0.57;;;;;;;8.32;58.99;95339.72;4946177;28;20196;-68
2022/11/30 09:09:12;;;;;;;0.10;0.10;;;;;;;8.46;58.78;95338.47;4948308;29;20614;-69
2022/11/30 09:11:40;;;;;;;0.10;0.10;;;;;;;8.38;59.70;95333.59;4940018;29;20195;-70
2022/11/30 09:14:11;;;;;;;0.00;0.00;;;;;;;8.32;59.63;95344.94;4953462;28;20223;-68
2022/11/30 09:16:38;;;;;;;0.10;0.10;;;;;;;8.55;58.56;95339.69;4947915;28;20675;-68
2022/11/30 09:19:04;;;;;;;0.00;0.00;;;;;;;8.73;59.09;95342.13;4945166;28;20569;-68
2022/11/30 09:21:31;;;;;;;0.20;0.20;;;;;;;8.79;59.06;95346.44;4936156;28;20307;-68
2022/11/30 09:23:58;;;;;;;1.02;1.00;;;;;;;8.14;59.05;95348.47;4934583;29;20531;-65
2022/11/30 09:26:25;;;;;;;0.00;0.00;;;;;;;8.36;59.14;95340.88;4933779;29;20263;-68
2022/11/30 09:28:53;;;;;;;0.00;0.00;;;;;;;8.56;59.37;95345.72;4941028;28;20680;-66
2022/11/30 09:31:24;;;;;;;0.00;0.00;;;;;;;8.64;58.76;95353.97;4939198;28;20711;-67
2022/11/30 09:33:53;;;;;;;0.20;0.20;;;;;;;8.47;59.16;95355.72;4946342;28;20228;-67
2022/11/30 09:36:21;;;;;;;0.00;0.00;;;;;;;8.36;59.75;95353.91;4933898;29;20205;-68
2022/11/30 09:38:48;;;;;;;0.10;0.10;;;;;;;8.36;59.63;95356.53;4938993;29;20195;-65
2022/11/30 09:41:27;;;;;;;0.08;0.08;;;;;;;8.55;59.52;95355.38;4941384;29;20445;-65
2022/11/30 09:44:12;;;;;;;0.00;0.00;;;;;;;8.46;60.05;95356.75;4952094;29;20200;-65
2022/11/30 09:47:03;;;;;;;0.10;0.10;;;;;;;8.31;60.07;95351.22;4952566;28;20236;-66
2022/11/30 09:49:35;;;;;;;0.08;0.08;;;;;;;8.84;59.45;95350.94;4943339;29;20204;-67
2022/11/30 09:52:05;;;;;;;5.78;1.65;;;;;;;8.65;59.68;95350.31;4934907;29;20201;-66
2022/11/30 09:54:43;;;;;;;0.20;0.20;;;;;;;8.99;58.59;95336.38;4947044;28;20196;-69
2022/11/30 09:57:29;;;;;;;0.55;0.50;;;;;;;9.12;58.60;95351.72;4946012;29;20196;-67
2022/11/30 10:00:15;;;;;;;0.20;0.20;;;;;;;8.60;58.74;95337.19;4933001;29;20264;-67
2022/11/30 10:02:43;;;;;;;0.00;0.00;;;;;;;8.88;58.79;95350.28;4948656;28;20198;-65
2022/11/30 10:05:28;;;;;;;0.00;0.00;;;;;;;8.75;58.77;95345.31;4944075;28;20208;-66
2022/11/30 10:08:23;;;;;;;0.00;0.00;;;;;;;8.53;59.77;95341.75;4946563;29;20237;-66
2022/11/30 10:10:53;;;;;;;0.10;0.10;;;;;;;8.54;59.76;95340.72;4932927;29;20216;-67
2022/11/30 10:13:26;;;;;;;0.15;0.13;;;;;;;8.86;59.07;95347.09;4938158;28;20270;-65
2022/11/30 10:16:15;;;;;;;0.70;0.70;;;;;;;8.94;59.85;95338.84;4951784;28;20283;-67
2022/11/30 10:19:04;;;;;;;0.00;0.00;;;;;;;9.11;59.16;95339.69;4940513;29;20214;-65
2022/11/30 10:21:59;;;;;;;0.00;0.00;;;;;;;8.95;59.04;95326.59;4948907;29;20248;-69
2022/11/30 10:24:56;;;;;;;0.00;0.00;;;;;;;9.07;58.66;95325.50;4932685;29;20219;-69
2022/11/30 10:27:50;;;;;;;0.00;0.00;;;;;;;8.95;58.74;95324.78;4941790;28;20259;-66
2022/11/30 10:30:21;;;;;;;0.00;0.00;;;;;;;8.97;59.31;95321.94;4959093;28;20235;-66
2022/11/30 10:32:54;;;;;;;0.15;0.15;;;;;;;8.99;59.34;95319.88;4952025;28;20239;-67
2022/11/30 10:36:02;;;;;;;0.10;0.10;;;;;;;9.08;58.91;95324.50;4952264;28;20607;-66
2022/11/30 10:38:59;;;;;;;0.32;0.32;;;;;;;9.20;58.33;95321.81;4968316;28;20199;-68
2022/11/30 10:41:41;;;;;;;0.35;0.35;;;;;;;8.83;59.44;95318.78;4937827;29;20275;-65
2022/11/30 10:44:21;;;;;;;0.00;0.00;;;;;;;8.98;59.02;95319.06;4944887;28;20284;-66
2022/11/30 10:46:58;;;;;;;0.10;0.10;;;;;;;9.20;58.83;95312.16;4945919;28;20238;-68
2022/11/30 10:49:28;;;;;;;0.00;0.00;;;;;;;8.44;60.32;95317.03;4941651;29;20207;-66
2022/11/30 10:52:02;;;;;;;0.00;0.00;;;;;;;9.10;58.90;95317.19;4936417;28;20208;-65
2022/11/30 10:54:29;;;;;;;0.47;0.47;;;;;;;8.75;59.17;95308.75;4950535;28;20454;-69
2022/11/30 10:57:01;;;;;;;0.00;0.00;;;;;;;8.22;60.40;95313.41;4941375;28;20543;-67
2022/11/30 10:59:41;;;;;;;0.00;0.00;;;;;;;8.61;59.35;95312.63;4949728;29;20200;-68
2022/11/30 11:02:40;;;;;;;0.00;0.00;;;;;;;9.29;58.37;95309.16;4940668;29;20482;-67
2022/11/30 11:05:15;;;;;;;0.10;0.10;;;;;;;9.63;57.90;95300.25;4940841;28;20451;-67
2022/11/30 11:08:21;;;;;;;0.00;0.00;;;;;;;9.37;57.76;95290.44;4949735;28;20219;-67
2022/11/30 11:10:50;;;;;;;0.10;0.10;;;;;;;9.09;59.22;95294.69;4947680;28;20211;-68
2022/11/30 11:13:37;;;;;;;0.00;0.00;;;;;;;9.14;57.89;95297.38;4945555;29;20196;-70
2022/11/30 11:16:06;;;;;;;0.05;0.05;;;;;;;9.05;58.78;95290.97;4932165;29;20664;-68
2022/11/30 11:18:35;;;;;;;1.38;0.30;;;;;;;9.34;58.42;95290.91;4938995;29;20188;-66
2022/11/30 11:21:17;;;;;;;0.40;0.40;;;;;;;9.02;58.64;95296.69;4938402;28;20306;-68
2022/11/30 11:23:46;;;;;;;0.00;0.00;;;;;;;8.92;59.12;95288.66;4939635;29;20550;-67
2022/11/30 11:26:22;;;;;;;1.02;0.60;;;;;;;9.19;58.85;95292.28;4953917;28;20200;-69
2022/11/30 11:28:51;;;;;;;0.73;0.73;;;;;;;9.39;58.42;95288.38;4955151;28;20215;-67
2022/11/30 11:31:46;;;;;;;0.10;0.10;;;;;;;9.27;58.50;95274.59;4955536;28;20470;-66
2022/11/30 11:34:23;;;;;;;0.00;0.00;;;;;;;9.18;58.24;95290.66;4955629;28;20561;-66
2022/11/30 11:37:06;;;;;;;0.00;0.00;;;;;;;9.36;58.03;95288.88;4941593;28;20570;-68
2022/11/30 11:39:33;;;;;;;0.30;0.30;;;;;;;9.36;58.38;95288.88;4954857;28;20609;-68
2022/11/30 11:42:01;;;;;;;0.00;0.00;;;;;;;8.98;59.04;95298.16;4951279;28;20487;-67
2022/11/30 11:44:28;;;;;;;0.00;0.00;;;;;;;8.73;59.62;95302.94;4946630;29;20204;-67
2022/11/30 11:46:58;;;;;;;0.93;0.73;;;;;;;8.98;59.48;95273.84;4952316;28;20654;-66
2022/11/30 11:49:31;;;;;;;0.00;0.00;;;;;;;9.15;59.14;95298.19;4935977;29;20456;-70
2022/11/30 11:52:10;;;;;;;0.43;0.43;;;;;;;9.14;59.10;95297.38;4935515;29;20216;-66
2022/11/30 11:54:49;;;;;;;0.00;0.00;;;;;;;9.28;58.62;95281.41;4947541;29;20202;-65
2022/11/30 11:57:20;;;;;;;0.20;0.20;;;;;;;9.34;58.25;95288.31;4949208;29;20211;-69
2022/11/30 12:00:00;;;;;;;0.28;0.28;;;;;;;9.07;59.42;95288.91;4942140;29;20242;-68
2022/11/30 12:02:41;;;;;;;0.00;0.00;;;;;;;9.33;58.67;95292.72;4940955;28;20232;-65